Terminal Aerodrome Forecast
Issued by NWS

Home | Current Version | Previous Version | Text Only | Print | Product List | Glossary On
Versions: 1 2 3 4 5 6 7 8 9 10 11 12 13 14 15 16 17 18 19 20 21 22 23 24 25
771
FTUS44 KLIX 232211 AAA
TAFMCB
TAF AMD
KMCB 232211Z 2322/2418 25005KT P6SM FEW010 SCT050 BKN200
     FM240900 25003KT 4SM BR BKN008
     FM241200 00000KT 2SM BR OVC008
     FM241330 26004KT 5SM BR OVC012
     FM241500 26005KT P6SM VCTS SCT015 BKN035CB=

USA.gov is the U.S. government's official web portal to all federal, state and local government web resources and services.